sensor_id;sensor_type;location;lat;lon;timestamp;P1;durP1;ratioP1;P2;durP2;ratioP2
13090;SDS011;6611;52.604;13.438;2023-03-21T00:02:49;7.00;;;4.30;;
13090;SDS011;6611;52.604;13.438;2023-03-21T00:07:51;8.00;;;4.63;;
13090;SDS011;6611;52.604;13.438;2023-03-21T00:12:54;6.07;;;4.00;;
13090;SDS011;6611;52.604;13.438;2023-03-21T00:17:57;5.27;;;3.90;;
13090;SDS011;6611;52.604;13.438;2023-03-21T00:23:02;8.27;;;4.17;;
13090;SDS011;6611;52.604;13.438;2023-03-21T00:28:06;6.03;;;4.17;;
13090;SDS011;6611;52.604;13.438;2023-03-21T00:33:07;6.10;;;4.07;;
13090;SDS011;6611;52.604;13.438;2023-03-21T00:38:09;7.00;;;4.73;;
13090;SDS011;6611;52.604;13.438;2023-03-21T00:43:12;6.57;;;4.17;;
13090;SDS011;6611;52.604;13.438;2023-03-21T00:48:17;7.07;;;4.17;;
13090;SDS011;6611;52.604;13.438;2023-03-21T00:53:19;6.20;;;4.50;;
13090;SDS011;6611;52.604;13.438;2023-03-21T00:58:22;5.37;;;4.43;;
13090;SDS011;6611;52.604;13.438;2023-03-21T01:03:25;6.30;;;4.80;;
13090;SDS011;6611;52.604;13.438;2023-03-21T01:08:28;7.70;;;5.10;;
13090;SDS011;6611;52.604;13.438;2023-03-21T01:13:31;7.97;;;4.60;;
13090;SDS011;6611;52.604;13.438;2023-03-21T01:18:35;6.57;;;4.17;;
13090;SDS011;6611;52.604;13.438;2023-03-21T01:23:39;5.90;;;4.17;;
13090;SDS011;6611;52.604;13.438;2023-03-21T01:28:43;5.87;;;4.20;;
13090;SDS011;6611;52.604;13.438;2023-03-21T01:33:45;6.50;;;4.03;;
13090;SDS011;6611;52.604;13.438;2023-03-21T01:38:47;7.60;;;5.10;;
13090;SDS011;6611;52.604;13.438;2023-03-21T01:43:50;9.10;;;5.93;;
13090;SDS011;6611;52.604;13.438;2023-03-21T01:48:53;10.13;;;6.47;;
13090;SDS011;6611;52.604;13.438;2023-03-21T01:53:57;10.30;;;7.07;;
13090;SDS011;6611;52.604;13.438;2023-03-21T01:59:03;9.80;;;7.20;;
13090;SDS011;6611;52.604;13.438;2023-03-21T02:04:08;11.40;;;7.50;;
13090;SDS011;6611;52.604;13.438;2023-03-21T02:09:12;10.10;;;6.80;;
13090;SDS011;6611;52.604;13.438;2023-03-21T02:14:20;11.67;;;7.13;;
13090;SDS011;6611;52.604;13.438;2023-03-21T02:25:23;11.60;;;7.43;;
13090;SDS011;6611;52.604;13.438;2023-03-21T02:41:51;11.53;;;7.80;;
13090;SDS011;6611;52.604;13.438;2023-03-21T02:47:02;11.47;;;8.47;;
13090;SDS011;6611;52.604;13.438;2023-03-21T02:52:12;12.80;;;9.57;;
13090;SDS011;6611;52.604;13.438;2023-03-21T02:57:17;16.10;;;10.13;;
13090;SDS011;6611;52.604;13.438;2023-03-21T03:02:21;17.03;;;11.77;;
13090;SDS011;6611;52.604;13.438;2023-03-21T03:07:30;19.07;;;12.37;;
13090;SDS011;6611;52.604;13.438;2023-03-21T03:12:42;17.77;;;12.53;;
13090;SDS011;6611;52.604;13.438;2023-03-21T03:17:49;17.23;;;11.30;;
13090;SDS011;6611;52.604;13.438;2023-03-21T03:22:58;17.47;;;12.57;;
13090;SDS011;6611;52.604;13.438;2023-03-21T03:28:06;20.80;;;12.67;;
13090;SDS011;6611;52.604;13.438;2023-03-21T03:33:09;20.23;;;13.20;;
13090;SDS011;6611;52.604;13.438;2023-03-21T03:38:17;22.17;;;13.90;;
13090;SDS011;6611;52.604;13.438;2023-03-21T03:43:21;22.03;;;13.47;;
13090;SDS011;6611;52.604;13.438;2023-03-21T03:48:27;20.17;;;13.13;;
13090;SDS011;6611;52.604;13.438;2023-03-21T03:53:35;21.27;;;12.97;;
13090;SDS011;6611;52.604;13.438;2023-03-21T03:58:41;21.10;;;14.53;;
13090;SDS011;6611;52.604;13.438;2023-03-21T04:03:43;19.23;;;12.47;;
13090;SDS011;6611;52.604;13.438;2023-03-21T04:08:49;24.73;;;13.80;;
13090;SDS011;6611;52.604;13.438;2023-03-21T04:13:51;21.87;;;13.93;;
13090;SDS011;6611;52.604;13.438;2023-03-21T04:18:52;21.60;;;14.07;;
13090;SDS011;6611;52.604;13.438;2023-03-21T04:23:56;22.83;;;14.23;;
13090;SDS011;6611;52.604;13.438;2023-03-21T04:28:57;22.30;;;14.13;;
13090;SDS011;6611;52.604;13.438;2023-03-21T04:34:00;22.73;;;14.33;;
13090;SDS011;6611;52.604;13.438;2023-03-21T04:39:06;24.80;;;13.60;;
13090;SDS011;6611;52.604;13.438;2023-03-21T04:44:11;23.07;;;15.33;;
13090;SDS011;6611;52.604;13.438;2023-03-21T04:49:13;22.37;;;14.67;;
13090;SDS011;6611;52.604;13.438;2023-03-21T04:54:17;23.97;;;14.57;;
13090;SDS011;6611;52.604;13.438;2023-03-21T04:59:20;23.50;;;14.47;;
13090;SDS011;6611;52.604;13.438;2023-03-21T05:04:21;21.00;;;13.83;;
13090;SDS011;6611;52.604;13.438;2023-03-21T05:09:24;22.20;;;13.90;;
13090;SDS011;6611;52.604;13.438;2023-03-21T05:14:26;24.00;;;14.27;;
13090;SDS011;6611;52.604;13.438;2023-03-21T05:19:29;22.07;;;13.30;;
13090;SDS011;6611;52.604;13.438;2023-03-21T05:24:35;22.33;;;12.87;;
13090;SDS011;6611;52.604;13.438;2023-03-21T05:29:40;25.83;;;14.07;;
13090;SDS011;6611;52.604;13.438;2023-03-21T05:34:42;27.03;;;13.67;;
13090;SDS011;6611;52.604;13.438;2023-03-21T05:39:45;26.17;;;14.67;;
13090;SDS011;6611;52.604;13.438;2023-03-21T05:44:47;22.53;;;12.87;;
13090;SDS011;6611;52.604;13.438;2023-03-21T05:49:48;22.07;;;13.27;;
13090;SDS011;6611;52.604;13.438;2023-03-21T05:54:51;28.27;;;15.20;;
13090;SDS011;6611;52.604;13.438;2023-03-21T05:59:53;24.13;;;14.37;;
13090;SDS011;6611;52.604;13.438;2023-03-21T06:04:55;26.23;;;14.13;;
13090;SDS011;6611;52.604;13.438;2023-03-21T06:09:58;25.50;;;15.20;;
13090;SDS011;6611;52.604;13.438;2023-03-21T06:15:00;24.00;;;13.07;;
13090;SDS011;6611;52.604;13.438;2023-03-21T06:20:01;25.23;;;14.17;;
13090;SDS011;6611;52.604;13.438;2023-03-21T06:25:06;24.87;;;13.17;;
13090;SDS011;6611;52.604;13.438;2023-03-21T06:30:09;29.90;;;15.70;;
13090;SDS011;6611;52.604;13.438;2023-03-21T06:35:11;26.37;;;14.87;;
13090;SDS011;6611;52.604;13.438;2023-03-21T06:40:15;26.80;;;14.33;;
13090;SDS011;6611;52.604;13.438;2023-03-21T06:45:17;24.47;;;14.37;;
13090;SDS011;6611;52.604;13.438;2023-03-21T06:50:18;23.03;;;13.17;;
13090;SDS011;6611;52.604;13.438;2023-03-21T06:55:21;21.37;;;12.40;;
13090;SDS011;6611;52.604;13.438;2023-03-21T07:00:26;26.17;;;13.70;;
13090;SDS011;6611;52.604;13.438;2023-03-21T07:05:27;23.30;;;13.47;;
13090;SDS011;6611;52.604;13.438;2023-03-21T07:10:31;22.07;;;13.27;;
13090;SDS011;6611;52.604;13.438;2023-03-21T07:15:33;27.70;;;13.93;;
13090;SDS011;6611;52.604;13.438;2023-03-21T07:20:37;26.40;;;13.80;;
13090;SDS011;6611;52.604;13.438;2023-03-21T07:25:40;25.83;;;13.77;;
13090;SDS011;6611;52.604;13.438;2023-03-21T07:30:41;28.53;;;14.83;;
13090;SDS011;6611;52.604;13.438;2023-03-21T07:35:43;28.03;;;14.67;;
13090;SDS011;6611;52.604;13.438;2023-03-21T07:40:46;24.63;;;14.57;;
13090;SDS011;6611;52.604;13.438;2023-03-21T07:45:48;26.83;;;15.57;;
13090;SDS011;6611;52.604;13.438;2023-03-21T07:50:50;25.47;;;14.50;;
13090;SDS011;6611;52.604;13.438;2023-03-21T07:55:54;27.50;;;14.17;;
13090;SDS011;6611;52.604;13.438;2023-03-21T08:00:57;26.00;;;13.77;;
13090;SDS011;6611;52.604;13.438;2023-03-21T08:05:59;27.63;;;14.13;;
13090;SDS011;6611;52.604;13.438;2023-03-21T08:11:02;29.77;;;14.50;;
13090;SDS011;6611;52.604;13.438;2023-03-21T08:16:04;26.97;;;14.97;;
13090;SDS011;6611;52.604;13.438;2023-03-21T08:21:07;28.57;;;14.00;;
13090;SDS011;6611;52.604;13.438;2023-03-21T08:26:11;24.73;;;13.13;;
13090;SDS011;6611;52.604;13.438;2023-03-21T08:31:17;26.40;;;13.73;;
13090;SDS011;6611;52.604;13.438;2023-03-21T08:36:20;25.67;;;14.17;;
13090;SDS011;6611;52.604;13.438;2023-03-21T08:41:24;24.83;;;13.70;;
13090;SDS011;6611;52.604;13.438;2023-03-21T08:46:25;25.87;;;14.13;;
13090;SDS011;6611;52.604;13.438;2023-03-21T08:51:27;28.20;;;15.90;;
13090;SDS011;6611;52.604;13.438;2023-03-21T08:56:32;26.50;;;14.67;;
13090;SDS011;6611;52.604;13.438;2023-03-21T09:01:33;25.07;;;14.17;;
13090;SDS011;6611;52.604;13.438;2023-03-21T09:06:36;24.83;;;15.00;;
13090;SDS011;6611;52.604;13.438;2023-03-21T09:11:41;26.93;;;14.23;;
13090;SDS011;6611;52.604;13.438;2023-03-21T09:16:43;25.73;;;14.63;;
13090;SDS011;6611;52.604;13.438;2023-03-21T09:21:45;27.13;;;14.13;;
13090;SDS011;6611;52.604;13.438;2023-03-21T09:26:48;24.70;;;14.13;;
13090;SDS011;6611;52.604;13.438;2023-03-21T09:31:50;25.80;;;14.00;;
13090;SDS011;6611;52.604;13.438;2023-03-21T09:36:53;23.37;;;13.07;;
13090;SDS011;6611;52.604;13.438;2023-03-21T09:42:06;20.80;;;12.07;;
13090;SDS011;6611;52.604;13.438;2023-03-21T09:47:17;20.63;;;11.83;;
13090;SDS011;6611;52.604;13.438;2023-03-21T09:52:24;20.27;;;11.77;;
13090;SDS011;6611;52.604;13.438;2023-03-21T09:57:35;18.70;;;10.63;;
13090;SDS011;6611;52.604;13.438;2023-03-21T10:02:42;19.60;;;11.57;;
13090;SDS011;6611;52.604;13.438;2023-03-21T10:07:49;19.47;;;11.77;;
13090;SDS011;6611;52.604;13.438;2023-03-21T10:12:55;19.27;;;10.93;;
13090;SDS011;6611;52.604;13.438;2023-03-21T10:17:58;18.23;;;10.83;;
13090;SDS011;6611;52.604;13.438;2023-03-21T10:23:03;19.87;;;10.23;;
13090;SDS011;6611;52.604;13.438;2023-03-21T10:28:08;17.67;;;10.00;;
13090;SDS011;6611;52.604;13.438;2023-03-21T10:33:16;13.40;;;8.53;;
13090;SDS011;6611;52.604;13.438;2023-03-21T10:38:20;15.33;;;9.90;;
13090;SDS011;6611;52.604;13.438;2023-03-21T10:43:34;16.07;;;9.60;;
13090;SDS011;6611;52.604;13.438;2023-03-21T10:48:38;16.97;;;9.47;;
13090;SDS011;6611;52.604;13.438;2023-03-21T10:53:45;15.73;;;9.23;;
13090;SDS011;6611;52.604;13.438;2023-03-21T10:58:52;16.77;;;9.23;;
13090;SDS011;6611;52.604;13.438;2023-03-21T11:03:58;15.80;;;9.47;;
13090;SDS011;6611;52.604;13.438;2023-03-21T11:09:04;14.67;;;8.87;;
13090;SDS011;6611;52.604;13.438;2023-03-21T11:14:19;17.20;;;8.60;;
13090;SDS011;6611;52.604;13.438;2023-03-21T11:19:28;16.13;;;8.93;;
13090;SDS011;6611;52.604;13.438;2023-03-21T11:24:32;15.87;;;9.37;;
13090;SDS011;6611;52.604;13.438;2023-03-21T11:29:37;16.40;;;9.47;;
13090;SDS011;6611;52.604;13.438;2023-03-21T11:34:43;15.63;;;9.33;;
13090;SDS011;6611;52.604;13.438;2023-03-21T11:39:47;14.47;;;8.80;;
13090;SDS011;6611;52.604;13.438;2023-03-21T11:45:09;14.63;;;8.67;;
13090;SDS011;6611;52.604;13.438;2023-03-21T11:50:17;14.30;;;9.33;;
13090;SDS011;6611;52.604;13.438;2023-03-21T11:55:28;15.77;;;9.97;;
13090;SDS011;6611;52.604;13.438;2023-03-21T12:00:38;13.53;;;9.10;;
13090;SDS011;6611;52.604;13.438;2023-03-21T12:05:47;16.43;;;8.90;;
13090;SDS011;6611;52.604;13.438;2023-03-21T12:10:55;13.57;;;8.77;;
13090;SDS011;6611;52.604;13.438;2023-03-21T12:16:12;14.37;;;8.90;;
13090;SDS011;6611;52.604;13.438;2023-03-21T12:21:31;12.67;;;8.37;;
13090;SDS011;6611;52.604;13.438;2023-03-21T12:26:37;13.13;;;9.03;;
13090;SDS011;6611;52.604;13.438;2023-03-21T12:31:47;15.73;;;9.07;;
13090;SDS011;6611;52.604;13.438;2023-03-21T12:37:03;14.47;;;9.43;;
13090;SDS011;6611;52.604;13.438;2023-03-21T12:47:47;12.20;;;8.57;;
13090;SDS011;6611;52.604;13.438;2023-03-21T12:52:56;13.80;;;9.33;;
13090;SDS011;6611;52.604;13.438;2023-03-21T12:58:01;12.70;;;9.20;;
13090;SDS011;6611;52.604;13.438;2023-03-21T13:03:07;12.60;;;8.77;;
13090;SDS011;6611;52.604;13.438;2023-03-21T13:08:14;14.20;;;9.33;;
13090;SDS011;6611;52.604;13.438;2023-03-21T13:13:21;11.87;;;8.20;;
13090;SDS011;6611;52.604;13.438;2023-03-21T13:18:37;16.30;;;8.80;;
13090;SDS011;6611;52.604;13.438;2023-03-21T13:23:54;13.87;;;8.77;;
13090;SDS011;6611;52.604;13.438;2023-03-21T13:29:00;13.40;;;8.73;;
13090;SDS011;6611;52.604;13.438;2023-03-21T13:34:03;11.03;;;8.20;;
13090;SDS011;6611;52.604;13.438;2023-03-21T13:39:11;11.27;;;8.20;;
13090;SDS011;6611;52.604;13.438;2023-03-21T13:44:21;12.27;;;8.17;;
13090;SDS011;6611;52.604;13.438;2023-03-21T13:49:27;11.90;;;7.97;;
13090;SDS011;6611;52.604;13.438;2023-03-21T14:05:19;10.10;;;7.03;;
13090;SDS011;6611;52.604;13.438;2023-03-21T14:10:22;10.83;;;7.30;;
13090;SDS011;6611;52.604;13.438;2023-03-21T14:15:30;10.83;;;7.10;;
13090;SDS011;6611;52.604;13.438;2023-03-21T14:20:39;11.70;;;7.47;;
13090;SDS011;6611;52.604;13.438;2023-03-21T14:25:41;11.03;;;7.00;;
13090;SDS011;6611;52.604;13.438;2023-03-21T14:30:48;12.40;;;6.07;;
13090;SDS011;6611;52.604;13.438;2023-03-21T14:35:55;11.00;;;6.97;;
13090;SDS011;6611;52.604;13.438;2023-03-21T14:40:59;9.90;;;6.00;;
13090;SDS011;6611;52.604;13.438;2023-03-21T14:46:01;9.23;;;6.13;;
13090;SDS011;6611;52.604;13.438;2023-03-21T14:51:05;8.57;;;6.77;;
13090;SDS011;6611;52.604;13.438;2023-03-21T14:56:14;10.20;;;6.27;;
13090;SDS011;6611;52.604;13.438;2023-03-21T15:01:21;9.63;;;6.50;;
13090;SDS011;6611;52.604;13.438;2023-03-21T15:06:29;10.40;;;6.57;;
13090;SDS011;6611;52.604;13.438;2023-03-21T15:11:31;7.43;;;5.73;;
13090;SDS011;6611;52.604;13.438;2023-03-21T15:16:34;10.10;;;6.70;;
13090;SDS011;6611;52.604;13.438;2023-03-21T15:21:38;9.10;;;6.00;;
13090;SDS011;6611;52.604;13.438;2023-03-21T15:26:43;6.93;;;5.40;;
13090;SDS011;6611;52.604;13.438;2023-03-21T15:31:46;7.90;;;5.40;;
13090;SDS011;6611;52.604;13.438;2023-03-21T15:36:53;7.20;;;5.70;;
13090;SDS011;6611;52.604;13.438;2023-03-21T15:42:01;7.57;;;5.70;;
13090;SDS011;6611;52.604;13.438;2023-03-21T15:47:07;10.53;;;6.13;;
13090;SDS011;6611;52.604;13.438;2023-03-21T15:52:15;8.83;;;6.07;;
13090;SDS011;6611;52.604;13.438;2023-03-21T15:57:19;8.80;;;6.00;;
13090;SDS011;6611;52.604;13.438;2023-03-21T16:02:23;6.67;;;5.50;;
13090;SDS011;6611;52.604;13.438;2023-03-21T16:07:33;7.50;;;5.10;;
13090;SDS011;6611;52.604;13.438;2023-03-21T16:12:35;11.23;;;5.40;;
13090;SDS011;6611;52.604;13.438;2023-03-21T16:17:36;8.90;;;5.30;;
13090;SDS011;6611;52.604;13.438;2023-03-21T16:22:41;6.67;;;5.37;;
13090;SDS011;6611;52.604;13.438;2023-03-21T16:27:43;6.97;;;5.40;;
13090;SDS011;6611;52.604;13.438;2023-03-21T16:32:45;7.90;;;5.43;;
13090;SDS011;6611;52.604;13.438;2023-03-21T16:37:50;7.20;;;5.53;;
13090;SDS011;6611;52.604;13.438;2023-03-21T16:42:51;6.53;;;5.83;;
13090;SDS011;6611;52.604;13.438;2023-03-21T16:47:53;8.13;;;5.30;;
13090;SDS011;6611;52.604;13.438;2023-03-21T16:52:57;9.53;;;5.57;;
13090;SDS011;6611;52.604;13.438;2023-03-21T16:57:59;8.63;;;6.30;;
13090;SDS011;6611;52.604;13.438;2023-03-21T17:03:04;7.63;;;6.13;;
13090;SDS011;6611;52.604;13.438;2023-03-21T17:08:16;7.93;;;6.37;;
13090;SDS011;6611;52.604;13.438;2023-03-21T17:13:20;12.33;;;8.07;;
13090;SDS011;6611;52.604;13.438;2023-03-21T17:18:22;11.43;;;7.77;;
13090;SDS011;6611;52.604;13.438;2023-03-21T17:23:25;10.60;;;8.37;;
13090;SDS011;6611;52.604;13.438;2023-03-21T17:28:28;12.07;;;9.43;;
13090;SDS011;6611;52.604;13.438;2023-03-21T17:33:30;11.07;;;9.00;;
13090;SDS011;6611;52.604;13.438;2023-03-21T17:38:33;10.40;;;8.70;;
13090;SDS011;6611;52.604;13.438;2023-03-21T17:43:37;11.83;;;8.03;;
13090;SDS011;6611;52.604;13.438;2023-03-21T17:48:38;11.93;;;8.83;;
13090;SDS011;6611;52.604;13.438;2023-03-21T17:53:42;10.77;;;8.60;;
13090;SDS011;6611;52.604;13.438;2023-03-21T17:58:44;14.13;;;9.40;;
13090;SDS011;6611;52.604;13.438;2023-03-21T18:03:46;16.10;;;10.13;;
13090;SDS011;6611;52.604;13.438;2023-03-21T18:08:49;12.77;;;10.33;;
13090;SDS011;6611;52.604;13.438;2023-03-21T18:13:52;14.97;;;10.53;;
13090;SDS011;6611;52.604;13.438;2023-03-21T18:18:53;14.20;;;9.90;;
13090;SDS011;6611;52.604;13.438;2023-03-21T18:23:57;17.40;;;10.73;;
13090;SDS011;6611;52.604;13.438;2023-03-21T18:28:58;13.20;;;10.03;;
13090;SDS011;6611;52.604;13.438;2023-03-21T18:34:00;13.93;;;10.80;;
13090;SDS011;6611;52.604;13.438;2023-03-21T18:39:03;14.43;;;11.37;;
13090;SDS011;6611;52.604;13.438;2023-03-21T18:44:05;15.10;;;11.83;;
13090;SDS011;6611;52.604;13.438;2023-03-21T18:49:08;15.23;;;10.70;;
13090;SDS011;6611;52.604;13.438;2023-03-21T18:54:11;15.03;;;11.47;;
13090;SDS011;6611;52.604;13.438;2023-03-21T18:59:13;15.73;;;11.63;;
13090;SDS011;6611;52.604;13.438;2023-03-21T19:04:16;13.93;;;11.50;;
13090;SDS011;6611;52.604;13.438;2023-03-21T19:09:20;18.00;;;13.00;;
13090;SDS011;6611;52.604;13.438;2023-03-21T19:14:22;17.43;;;11.93;;
13090;SDS011;6611;52.604;13.438;2023-03-21T19:19:24;15.83;;;12.17;;
13090;SDS011;6611;52.604;13.438;2023-03-21T19:24:27;16.07;;;11.67;;
13090;SDS011;6611;52.604;13.438;2023-03-21T19:29:28;14.80;;;11.13;;
13090;SDS011;6611;52.604;13.438;2023-03-21T19:34:30;15.97;;;11.47;;
13090;SDS011;6611;52.604;13.438;2023-03-21T19:39:33;17.90;;;11.67;;
13090;SDS011;6611;52.604;13.438;2023-03-21T19:44:35;14.40;;;11.33;;
13090;SDS011;6611;52.604;13.438;2023-03-21T19:49:36;15.90;;;11.10;;
13090;SDS011;6611;52.604;13.438;2023-03-21T19:54:41;13.00;;;10.33;;
13090;SDS011;6611;52.604;13.438;2023-03-21T19:59:42;16.37;;;10.87;;
13090;SDS011;6611;52.604;13.438;2023-03-21T20:04:44;14.83;;;11.23;;
13090;SDS011;6611;52.604;13.438;2023-03-21T20:09:47;14.50;;;10.70;;
13090;SDS011;6611;52.604;13.438;2023-03-21T20:14:49;14.90;;;10.40;;
13090;SDS011;6611;52.604;13.438;2023-03-21T20:19:51;18.33;;;11.47;;
13090;SDS011;6611;52.604;13.438;2023-03-21T20:24:58;17.77;;;11.47;;
13090;SDS011;6611;52.604;13.438;2023-03-21T20:30:04;16.03;;;11.30;;
13090;SDS011;6611;52.604;13.438;2023-03-21T20:35:09;15.53;;;11.77;;
13090;SDS011;6611;52.604;13.438;2023-03-21T20:40:14;17.97;;;11.30;;
13090;SDS011;6611;52.604;13.438;2023-03-21T20:45:16;15.90;;;11.00;;
13090;SDS011;6611;52.604;13.438;2023-03-21T20:50:18;19.57;;;12.43;;
13090;SDS011;6611;52.604;13.438;2023-03-21T20:55:22;18.57;;;12.87;;
13090;SDS011;6611;52.604;13.438;2023-03-21T21:00:23;17.07;;;12.37;;
13090;SDS011;6611;52.604;13.438;2023-03-21T21:05:26;18.73;;;12.60;;
13090;SDS011;6611;52.604;13.438;2023-03-21T21:10:29;18.90;;;13.13;;
13090;SDS011;6611;52.604;13.438;2023-03-21T21:15:32;21.90;;;13.80;;
13090;SDS011;6611;52.604;13.438;2023-03-21T21:20:34;17.67;;;12.67;;
13090;SDS011;6611;52.604;13.438;2023-03-21T21:25:37;19.97;;;13.47;;
13090;SDS011;6611;52.604;13.438;2023-03-21T21:30:39;17.00;;;12.40;;
13090;SDS011;6611;52.604;13.438;2023-03-21T21:35:41;18.13;;;13.13;;
13090;SDS011;6611;52.604;13.438;2023-03-21T21:40:48;19.27;;;13.83;;
13090;SDS011;6611;52.604;13.438;2023-03-21T21:45:51;21.97;;;15.07;;
13090;SDS011;6611;52.604;13.438;2023-03-21T21:50:53;19.93;;;14.43;;
13090;SDS011;6611;52.604;13.438;2023-03-21T21:55:56;19.63;;;14.47;;
13090;SDS011;6611;52.604;13.438;2023-03-21T22:01:01;20.80;;;14.30;;
13090;SDS011;6611;52.604;13.438;2023-03-21T22:06:02;21.37;;;14.33;;
13090;SDS011;6611;52.604;13.438;2023-03-21T22:11:06;22.20;;;15.20;;
13090;SDS011;6611;52.604;13.438;2023-03-21T22:16:08;25.57;;;16.00;;
13090;SDS011;6611;52.604;13.438;2023-03-21T22:21:10;22.47;;;14.97;;
13090;SDS011;6611;52.604;13.438;2023-03-21T22:26:13;23.10;;;15.33;;
13090;SDS011;6611;52.604;13.438;2023-03-21T22:31:15;23.83;;;15.93;;
13090;SDS011;6611;52.604;13.438;2023-03-21T22:36:17;22.43;;;14.90;;
13090;SDS011;6611;52.604;13.438;2023-03-21T22:41:20;20.70;;;14.60;;
13090;SDS011;6611;52.604;13.438;2023-03-21T22:46:22;19.13;;;13.77;;
13090;SDS011;6611;52.604;13.438;2023-03-21T22:51:24;23.40;;;14.57;;
13090;SDS011;6611;52.604;13.438;2023-03-21T22:56:27;23.10;;;15.73;;
13090;SDS011;6611;52.604;13.438;2023-03-21T23:01:29;21.90;;;15.67;;
13090;SDS011;6611;52.604;13.438;2023-03-21T23:06:31;23.10;;;14.87;;
13090;SDS011;6611;52.604;13.438;2023-03-21T23:11:34;22.90;;;15.97;;
13090;SDS011;6611;52.604;13.438;2023-03-21T23:16:36;22.80;;;14.63;;
13090;SDS011;6611;52.604;13.438;2023-03-21T23:21:38;22.87;;;14.67;;
13090;SDS011;6611;52.604;13.438;2023-03-21T23:26:41;21.37;;;14.80;;
13090;SDS011;6611;52.604;13.438;2023-03-21T23:31:43;25.00;;;15.10;;
13090;SDS011;6611;52.604;13.438;2023-03-21T23:36:45;19.93;;;12.90;;
13090;SDS011;6611;52.604;13.438;2023-03-21T23:41:48;19.67;;;12.77;;
13090;SDS011;6611;52.604;13.438;2023-03-21T23:46:50;17.93;;;11.60;;
13090;SDS011;6611;52.604;13.438;2023-03-21T23:51:51;17.80;;;11.30;;
13090;SDS011;6611;52.604;13.438;2023-03-21T23:56:54;17.87;;;12.03;;
